createdAt,value
2018-03-20T10:30:05.725Z,96.00
2018-03-20T10:31:05.695Z,100.00
2018-03-20T10:32:05.731Z,100.00
2018-03-20T10:33:05.752Z,100.00
2018-03-20T10:34:05.786Z,100.00
2018-03-20T10:35:05.818Z,100.00
2018-03-20T10:36:05.849Z,100.00
2018-03-20T10:37:05.877Z,100.00
2018-03-20T10:38:05.921Z,100.00
2018-03-20T10:39:05.953Z,100.00
2018-03-20T10:40:05.989Z,100.00
2018-03-20T10:41:06.019Z,100.00
2018-03-20T10:42:06.041Z,100.00
2018-03-20T10:43:06.096Z,100.00
2018-03-20T10:44:06.110Z,96.00
2018-03-20T10:45:06.144Z,100.00
2018-03-20T10:46:06.185Z,100.00
2018-03-20T10:47:06.215Z,100.00
2018-03-20T10:48:06.248Z,100.00
2018-03-20T10:49:06.283Z,100.00
2018-03-20T10:50:06.321Z,100.00
2018-03-20T10:51:06.355Z,100.00
2018-03-20T10:52:06.384Z,100.00
2018-03-20T10:53:06.419Z,100.00
2018-03-20T10:54:06.453Z,100.00
2018-03-20T10:55:06.493Z,100.00
2018-03-20T10:56:06.525Z,100.00
2018-03-20T10:57:06.558Z,100.00
2018-03-20T10:58:06.595Z,100.00
2018-03-20T10:59:06.631Z,100.00
2018-03-20T11:00:06.662Z,100.00
2018-03-20T11:01:06.698Z,100.00
2018-03-20T11:02:06.741Z,100.00
2018-03-20T11:03:06.766Z,100.00
2018-03-20T11:04:06.800Z,100.00
2018-03-20T11:05:06.838Z,100.00
2018-03-20T11:06:06.872Z,100.00
2018-03-20T11:07:06.908Z,100.00
2018-03-20T11:08:06.941Z,100.00
2018-03-20T11:09:06.975Z,100.00
2018-03-20T11:10:07.742Z,100.00
2018-03-20T11:11:07.046Z,100.00
2018-03-20T11:12:07.079Z,100.00
2018-03-20T11:13:07.119Z,100.00
2018-03-20T11:14:07.149Z,100.00
2018-03-20T11:15:07.182Z,100.00
2018-03-20T11:16:07.219Z,100.00
2018-03-20T11:17:07.254Z,100.00
2018-03-20T11:18:07.290Z,100.00
2018-03-20T11:19:07.324Z,100.00
2018-03-20T11:20:07.359Z,100.00
2018-03-20T11:21:07.396Z,100.00
2018-03-20T11:22:07.429Z,100.00
2018-03-20T11:23:07.462Z,100.00
2018-03-20T11:24:07.497Z,100.00
2018-03-20T11:25:07.532Z,100.00
2018-03-20T11:26:07.566Z,100.00
2018-03-20T11:27:07.615Z,100.00
2018-03-20T11:28:07.639Z,100.00
2018-03-20T11:29:07.674Z,100.00
2018-03-20T11:30:07.706Z,100.00
2018-03-20T11:31:07.741Z,100.00
2018-03-20T11:32:07.779Z,100.00
2018-03-20T11:33:07.812Z,100.00
2018-03-20T11:34:07.846Z,100.00
2018-03-20T11:35:07.899Z,104.00
2018-03-20T11:36:07.917Z,100.00
2018-03-20T11:37:07.954Z,100.00
2018-03-20T11:38:07.989Z,100.00
2018-03-20T11:39:08.024Z,100.00
2018-03-20T11:40:08.057Z,100.00
2018-03-20T11:41:08.093Z,100.00
2018-03-20T11:42:08.127Z,96.00
2018-03-20T11:43:08.166Z,100.00
2018-03-20T11:44:08.197Z,100.00
2018-03-20T11:45:08.238Z,104.00
2018-03-20T11:46:08.267Z,104.00
2018-03-20T11:47:08.302Z,104.00
2018-03-20T11:48:08.336Z,104.00
2018-03-20T11:49:08.373Z,104.00
2018-03-20T11:50:08.409Z,100.00
2018-03-20T11:51:08.442Z,100.00
2018-03-20T11:52:08.482Z,100.00
2018-03-20T11:53:08.513Z,100.00
2018-03-20T11:54:08.547Z,100.00
2018-03-20T11:55:08.593Z,100.00
2018-03-20T11:56:08.625Z,100.00
2018-03-20T11:57:08.656Z,100.00
2018-03-20T11:58:08.690Z,100.00
2018-03-20T11:59:08.727Z,100.00
2018-03-20T12:00:08.761Z,100.00
2018-03-20T12:01:08.795Z,104.00
2018-03-20T12:02:08.844Z,100.00
2018-03-20T12:03:08.867Z,100.00
2018-03-20T12:04:08.899Z,100.00
2018-03-20T12:05:08.952Z,100.00
2018-03-20T12:06:08.970Z,100.00
2018-03-20T12:07:09.008Z,100.00
2018-03-20T12:08:09.055Z,100.00
2018-03-20T12:09:09.077Z,100.00
2018-03-20T12:10:09.154Z,100.00
2018-03-20T12:11:09.147Z,100.00
2018-03-20T12:12:09.182Z,104.00
2018-03-20T12:13:09.240Z,100.00
2018-03-20T12:14:09.420Z,100.00
2018-03-20T12:15:09.293Z,100.00
2018-03-20T12:16:09.322Z,104.00
2018-03-20T12:17:09.358Z,100.00
2018-03-20T12:18:09.422Z,104.00
2018-03-20T12:19:09.426Z,100.00
2018-03-20T12:20:09.465Z,100.00
2018-03-20T12:21:09.498Z,100.00
2018-03-20T12:22:09.538Z,100.00
2018-03-20T12:23:09.572Z,100.00
2018-03-20T12:24:09.604Z,100.00
2018-03-20T12:25:09.640Z,100.00
2018-03-20T12:26:09.678Z,100.00
2018-03-20T12:27:09.713Z,100.00
2018-03-20T12:28:09.746Z,100.00
2018-03-20T12:29:09.781Z,100.00
2018-03-20T12:30:10.771Z,100.00
2018-03-20T12:31:09.850Z,100.00
2018-03-20T12:32:09.888Z,100.00
2018-03-20T12:33:09.921Z,100.00
2018-03-20T12:34:09.957Z,104.00
2018-03-20T12:35:09.991Z,100.00
2018-03-20T12:36:10.029Z,104.00
2018-03-20T12:37:10.062Z,104.00
2018-03-20T12:38:10.098Z,104.00
2018-03-20T12:39:10.133Z,104.00
2018-03-20T12:40:10.169Z,104.00
2018-03-20T12:41:10.210Z,100.00
2018-03-20T12:42:10.238Z,100.00
2018-03-20T12:43:10.275Z,104.00
2018-03-20T12:44:10.307Z,104.00
2018-03-20T12:45:10.351Z,100.00
2018-03-20T12:46:10.378Z,96.00
2018-03-20T12:47:10.413Z,104.00
2018-03-20T12:48:10.455Z,100.00
2018-03-20T12:49:10.486Z,100.00
2018-03-20T12:50:10.521Z,104.00
2018-03-20T12:51:10.557Z,104.00
2018-03-20T12:52:10.592Z,104.00
2018-03-20T12:53:10.625Z,104.00
2018-03-20T12:54:10.662Z,104.00
2018-03-20T12:55:10.697Z,104.00
2018-03-20T12:56:10.730Z,104.00
2018-03-20T12:57:10.767Z,100.00
2018-03-20T12:58:10.802Z,100.00
2018-03-20T12:59:10.834Z,100.00
2018-03-20T13:00:10.873Z,104.00
2018-03-20T13:01:10.909Z,100.00
2018-03-20T13:02:10.944Z,100.00
2018-03-20T13:03:10.978Z,100.00
2018-03-20T13:04:11.013Z,104.00
2018-03-20T13:05:11.051Z,104.00
2018-03-20T13:06:11.082Z,104.00
2018-03-20T13:07:11.127Z,104.00
2018-03-20T13:08:11.151Z,104.00
2018-03-20T13:09:11.187Z,104.00
2018-03-20T13:10:11.223Z,104.00
2018-03-20T13:11:11.258Z,104.00
2018-03-20T13:12:11.293Z,104.00
2018-03-20T13:13:11.369Z,104.00
2018-03-20T13:14:11.363Z,104.00
2018-03-20T13:15:11.403Z,104.00
2018-03-20T13:16:11.434Z,104.00
2018-03-20T13:17:11.471Z,104.00
2018-03-20T13:18:11.508Z,104.00
2018-03-20T13:19:11.540Z,104.00
2018-03-20T13:20:11.576Z,104.00
2018-03-20T13:21:11.630Z,104.00
2018-03-20T13:22:11.650Z,104.00
2018-03-20T13:23:11.756Z,104.00
2018-03-20T13:24:11.713Z,104.00
2018-03-20T13:25:11.753Z,104.00
2018-03-20T13:26:11.790Z,104.00
2018-03-20T13:27:11.821Z,104.00
2018-03-20T13:28:11.893Z,100.00
2018-03-20T13:29:11.905Z,100.00
2018-03-20T13:30:12.797Z,100.00
2018-03-20T13:31:11.960Z,100.00
2018-03-20T13:32:12.017Z,100.00
2018-03-20T13:33:12.030Z,100.00
2018-03-20T13:34:12.063Z,100.00
2018-03-20T13:35:12.106Z,100.00
2018-03-20T13:36:12.135Z,100.00
2018-03-20T13:37:12.171Z,100.00
2018-03-20T13:38:12.212Z,100.00
2018-03-20T13:39:12.242Z,100.00
2018-03-20T13:40:12.275Z,104.00
2018-03-20T13:41:12.323Z,104.00
2018-03-20T13:42:12.345Z,104.00
2018-03-20T13:43:12.384Z,104.00
2018-03-20T13:44:12.418Z,104.00
2018-03-20T13:45:12.452Z,104.00
2018-03-20T13:46:12.488Z,100.00
2018-03-20T13:47:12.524Z,100.00
2018-03-20T13:48:12.558Z,100.00
2018-03-20T13:49:12.640Z,104.00
2018-03-20T13:50:12.628Z,40.00
2018-03-20T13:51:12.664Z,4.00
2018-03-20T13:52:12.715Z,4.00
2018-03-20T13:53:12.741Z,4.00
2018-03-20T13:54:12.767Z,8.00
2018-03-20T13:55:12.807Z,4.00
2018-03-20T13:56:12.839Z,4.00
2018-03-20T13:57:12.875Z,4.00
2018-03-20T13:58:12.909Z,4.00
2018-03-20T13:59:12.948Z,8.00
2018-03-20T14:00:12.983Z,8.00
2018-03-20T14:01:13.024Z,8.00
2018-03-20T14:02:13.050Z,8.00
2018-03-20T14:03:13.084Z,8.00
2018-03-20T14:04:13.120Z,8.00
2018-03-20T14:05:13.155Z,8.00
2018-03-20T14:06:13.212Z,4.00
2018-03-20T14:07:13.226Z,4.00
2018-03-20T14:08:13.262Z,4.00
2018-03-20T14:09:13.299Z,4.00
2018-03-20T14:10:13.333Z,4.00
2018-03-20T14:11:13.369Z,4.00
2018-03-20T14:12:13.403Z,4.00
2018-03-20T14:13:13.438Z,4.00
2018-03-20T14:14:13.470Z,4.00
2018-03-20T14:15:13.511Z,4.00
2018-03-20T14:16:13.541Z,8.00
2018-03-20T14:17:13.580Z,8.00
2018-03-20T14:18:13.611Z,8.00
2018-03-20T14:19:13.647Z,8.00
2018-03-20T14:20:13.694Z,8.00
2018-03-20T14:21:13.721Z,8.00
2018-03-20T14:22:13.760Z,8.00
2018-03-20T14:23:13.790Z,8.00
2018-03-20T14:24:13.821Z,8.00
2018-03-20T14:25:13.860Z,8.00
2018-03-20T14:26:13.894Z,8.00
2018-03-20T14:27:13.932Z,8.00
2018-03-20T14:28:13.963Z,12.00
2018-03-20T14:29:14.001Z,8.00
2018-03-20T14:30:14.033Z,12.00
2018-03-20T14:31:14.109Z,12.00
2018-03-20T14:32:14.102Z,12.00
2018-03-20T14:33:14.138Z,12.00
2018-03-20T14:34:14.172Z,12.00
2018-03-20T14:35:14.206Z,12.00
2018-03-20T14:36:14.242Z,16.00
2018-03-20T14:37:14.277Z,12.00
2018-03-20T14:38:14.312Z,12.00
2018-03-20T14:39:14.348Z,12.00
2018-03-20T14:40:14.385Z,12.00
2018-03-20T14:41:14.416Z,16.00
2018-03-20T14:42:14.451Z,16.00
2018-03-20T14:43:14.491Z,16.00
2018-03-20T14:44:14.521Z,16.00
2018-03-20T14:45:14.556Z,12.00
2018-03-20T14:46:14.590Z,16.00
2018-03-20T14:47:14.626Z,16.00
2018-03-20T14:48:14.660Z,16.00
2018-03-20T14:49:14.696Z,16.00
2018-03-20T14:50:15.327Z,16.00
2018-03-20T14:51:14.767Z,16.00
2018-03-20T14:52:14.800Z,16.00
2018-03-20T14:53:14.835Z,16.00
2018-03-20T14:54:14.871Z,16.00
2018-03-20T14:55:14.904Z,16.00
2018-03-20T14:56:14.941Z,16.00
2018-03-20T14:57:14.974Z,12.00
2018-03-20T14:58:15.015Z,16.00
2018-03-20T14:59:15.043Z,16.00
2018-03-20T15:00:15.079Z,12.00
2018-03-20T15:01:15.116Z,12.00
2018-03-20T15:02:15.149Z,12.00
2018-03-20T15:03:15.183Z,8.00
2018-03-20T15:04:15.218Z,12.00
2018-03-20T15:05:15.258Z,8.00
2018-03-20T15:06:15.287Z,8.00
2018-03-20T15:07:15.332Z,8.00
2018-03-20T15:08:15.360Z,4.00
2018-03-20T15:09:15.395Z,8.00
2018-03-20T15:10:15.428Z,4.00
2018-03-20T15:11:15.461Z,8.00
2018-03-20T15:12:15.496Z,8.00
2018-03-20T15:13:15.535Z,4.00
2018-03-20T15:14:15.565Z,4.00
2018-03-20T15:15:15.600Z,4.00
2018-03-20T15:16:15.638Z,4.00
2018-03-20T15:17:15.670Z,4.00
2018-03-20T15:18:15.704Z,0.00
2018-03-20T15:19:15.740Z,4.00
2018-03-20T15:20:15.778Z,4.00
2018-03-20T15:21:15.809Z,8.00
2018-03-20T15:22:15.845Z,8.00
2018-03-20T15:23:15.878Z,8.00
2018-03-20T15:24:15.916Z,4.00
2018-03-20T15:25:15.948Z,4.00
2018-03-20T15:26:15.983Z,4.00
2018-03-20T15:27:16.021Z,4.00
2018-03-20T15:28:16.053Z,4.00
2018-03-20T15:29:16.119Z,0.00
2018-03-20T15:30:16.127Z,0.00
2018-03-20T15:31:16.156Z,0.00
2018-03-20T15:32:16.192Z,0.00
2018-03-20T15:33:16.225Z,4.00
2018-03-20T15:34:16.262Z,4.00
2018-03-20T15:35:16.298Z,4.00
2018-03-20T15:36:16.330Z,0.00
2018-03-20T15:37:16.365Z,4.00
2018-03-20T15:38:16.407Z,4.00
2018-03-20T15:39:16.437Z,4.00
2018-03-20T15:40:16.470Z,4.00
2018-03-20T15:41:16.505Z,4.00
2018-03-20T15:42:16.546Z,4.00
2018-03-20T15:43:16.576Z,4.00
2018-03-20T15:44:16.610Z,4.00
2018-03-20T15:45:16.647Z,4.00
2018-03-20T15:46:16.679Z,4.00
2018-03-20T15:47:16.713Z,4.00
2018-03-20T15:48:16.748Z,0.00
2018-03-20T15:49:16.837Z,0.00
2018-03-20T15:50:16.820Z,4.00
2018-03-20T15:51:16.851Z,0.00
2018-03-20T15:52:16.890Z,4.00
2018-03-20T15:53:16.928Z,4.00
2018-03-20T15:54:16.957Z,4.00
2018-03-20T15:55:16.990Z,4.00
2018-03-20T15:56:17.032Z,4.00
2018-03-20T15:57:17.066Z,4.00
2018-03-20T15:58:17.118Z,4.00
2018-03-20T15:59:17.130Z,0.00
2018-03-20T16:00:17.165Z,0.00
2018-03-20T16:01:17.208Z,0.00
2018-03-20T16:02:17.233Z,0.00
2018-03-20T16:03:17.266Z,0.00
2018-03-20T16:04:17.304Z,0.00
2018-03-20T16:05:17.340Z,0.00
2018-03-20T16:06:17.372Z,0.00
2018-03-20T16:07:17.409Z,0.00
2018-03-20T16:08:17.445Z,0.00
2018-03-20T16:09:17.504Z,0.00
2018-03-20T16:10:17.513Z,0.00
2018-03-20T16:11:17.545Z,0.00
2018-03-20T16:12:17.580Z,0.00
2018-03-20T16:13:17.615Z,0.00
2018-03-20T16:14:17.648Z,0.00
2018-03-20T16:15:17.684Z,0.00
2018-03-20T16:16:17.722Z,0.00
2018-03-20T16:17:17.756Z,0.00
2018-03-20T16:18:17.790Z,0.00
2018-03-20T16:19:17.823Z,0.00
2018-03-20T16:20:17.857Z,0.00
2018-03-20T16:21:17.895Z,0.00
2018-03-20T16:22:17.940Z,0.00
2018-03-20T16:23:17.960Z,0.00
2018-03-20T16:24:18.003Z,0.00
2018-03-20T16:25:18.032Z,0.00
2018-03-20T16:26:18.069Z,0.00
2018-03-20T16:27:18.100Z,0.00
2018-03-20T16:28:18.139Z,0.00
2018-03-20T16:29:18.169Z,0.00
2018-03-20T16:30:19.867Z,0.00
2018-03-20T16:31:18.241Z,0.00
2018-03-20T16:32:18.280Z,0.00
2018-03-20T16:33:18.310Z,0.00
2018-03-20T16:34:18.343Z,0.00
2018-03-20T16:35:18.383Z,0.00
2018-03-20T16:36:18.414Z,0.00
2018-03-20T16:37:18.448Z,0.00
2018-03-20T16:38:18.486Z,0.00
2018-03-20T16:39:18.515Z,0.00
2018-03-20T16:40:18.551Z,0.00
2018-03-20T16:41:18.587Z,0.00
2018-03-20T16:42:18.672Z,0.00
2018-03-20T16:43:18.659Z,0.00
2018-03-20T16:44:18.689Z,0.00
2018-03-20T16:45:18.724Z,0.00
2018-03-20T16:46:18.757Z,0.00
2018-03-20T16:47:18.792Z,0.00
2018-03-20T16:48:18.828Z,0.00
2018-03-20T16:49:18.862Z,0.00
2018-03-20T16:50:18.895Z,0.00
2018-03-20T16:51:18.934Z,0.00
2018-03-20T16:52:18.969Z,0.00
2018-03-20T16:53:19.003Z,0.00
2018-03-20T16:54:19.034Z,0.00
2018-03-20T16:55:19.077Z,0.00
2018-03-20T16:56:19.103Z,0.00
2018-03-20T16:57:19.139Z,0.00
2018-03-20T16:58:19.173Z,0.00
2018-03-20T16:59:19.264Z,0.00
2018-03-20T17:00:19.243Z,0.00
2018-03-20T17:01:19.279Z,0.00
2018-03-20T17:02:19.313Z,0.00
2018-03-20T17:03:19.352Z,0.00
2018-03-20T17:04:19.382Z,0.00
2018-03-20T17:05:19.416Z,0.00
2018-03-20T17:06:19.449Z,0.00
2018-03-20T17:07:19.490Z,0.00
2018-03-20T17:08:19.521Z,0.00
2018-03-20T17:09:19.556Z,0.00
2018-03-20T17:10:19.595Z,0.00
2018-03-20T17:11:19.624Z,0.00
2018-03-20T17:12:19.660Z,0.00
2018-03-20T17:13:19.694Z,0.00
2018-03-20T17:14:19.744Z,0.00
2018-03-20T17:15:19.781Z,0.00
2018-03-20T17:16:19.795Z,0.00
2018-03-20T17:17:19.832Z,0.00
2018-03-20T17:18:19.866Z,0.00
2018-03-20T17:19:19.900Z,0.00
2018-03-20T17:20:19.937Z,0.00
2018-03-20T17:21:19.970Z,0.00
2018-03-20T17:22:20.008Z,0.00
2018-03-20T17:23:20.040Z,0.00
2018-03-20T17:24:20.075Z,0.00
2018-03-20T17:25:20.109Z,0.00
2018-03-20T17:26:20.149Z,0.00
2018-03-20T17:27:20.185Z,0.00
2018-03-20T17:28:20.222Z,0.00
2018-03-20T17:29:20.251Z,0.00
2018-03-20T17:30:20.288Z,0.00
2018-03-20T17:31:20.316Z,0.00
2018-03-20T17:32:20.352Z,0.00
2018-03-20T17:33:20.386Z,0.00
2018-03-20T17:34:20.422Z,0.00
2018-03-20T17:35:20.456Z,0.00
2018-03-20T17:36:20.493Z,0.00
2018-03-20T17:37:20.526Z,0.00
2018-03-20T17:38:20.558Z,0.00
2018-03-20T17:39:20.593Z,0.00
2018-03-20T17:40:20.628Z,0.00
2018-03-20T17:41:20.663Z,0.00
2018-03-20T17:42:20.698Z,0.00
2018-03-20T17:43:20.731Z,0.00
2018-03-20T17:44:20.765Z,0.00
2018-03-20T17:45:20.802Z,0.00
2018-03-20T17:46:20.856Z,0.00
2018-03-20T17:47:20.873Z,0.00
2018-03-20T17:48:20.905Z,0.00
2018-03-20T17:49:20.939Z,0.00
2018-03-20T17:50:20.976Z,0.00
2018-03-20T17:51:21.007Z,0.00
2018-03-20T17:52:21.043Z,0.00
2018-03-20T17:53:21.082Z,0.00
2018-03-20T17:54:21.112Z,0.00
2018-03-20T17:55:21.147Z,0.00
2018-03-20T17:56:21.181Z,0.00
2018-03-20T17:57:21.216Z,0.00
2018-03-20T17:58:21.254Z,0.00
2018-03-20T17:59:21.285Z,0.00
2018-03-20T18:00:21.320Z,0.00
2018-03-20T18:01:21.355Z,0.00
2018-03-20T18:02:21.390Z,0.00
2018-03-20T18:03:21.423Z,0.00
2018-03-20T18:04:21.458Z,0.00
2018-03-20T18:05:21.497Z,0.00
2018-03-20T18:06:21.527Z,0.00
2018-03-20T18:07:21.562Z,0.00
2018-03-20T18:08:21.597Z,0.00
2018-03-20T18:09:21.630Z,0.00
2018-03-20T18:10:21.675Z,0.00
2018-03-20T18:11:21.701Z,0.00
2018-03-20T18:12:21.735Z,0.00
2018-03-20T18:13:21.773Z,0.00
2018-03-20T18:14:21.802Z,0.00
2018-03-20T18:15:21.838Z,0.00
2018-03-20T18:16:21.874Z,0.00
2018-03-20T18:17:21.906Z,0.00
2018-03-20T18:18:21.953Z,0.00
2018-03-20T18:19:21.976Z,0.00
2018-03-20T18:20:22.011Z,0.00
2018-03-20T18:21:22.047Z,0.00
2018-03-20T18:22:22.080Z,0.00
2018-03-20T18:23:22.113Z,0.00
2018-03-20T18:24:22.149Z,0.00
2018-03-20T18:25:22.183Z,0.00
2018-03-20T18:26:22.216Z,0.00
2018-03-20T18:27:22.253Z,0.00
2018-03-20T18:28:22.290Z,0.00
2018-03-20T18:29:22.323Z,0.00
2018-03-20T18:30:22.357Z,0.00
2018-03-20T18:31:22.390Z,0.00
2018-03-20T18:32:22.428Z,0.00
2018-03-20T18:33:22.468Z,0.00
2018-03-20T18:34:22.495Z,0.00
2018-03-20T18:35:22.527Z,0.00
2018-03-20T18:36:22.564Z,0.00
2018-03-20T18:37:22.602Z,0.00
2018-03-20T18:38:22.630Z,0.00
2018-03-20T18:39:22.665Z,0.00
2018-03-20T18:40:22.699Z,0.00
2018-03-20T18:41:22.735Z,0.00
2018-03-20T18:42:22.772Z,0.00
2018-03-20T18:43:22.824Z,0.00
2018-03-20T18:44:22.836Z,0.00
2018-03-20T18:45:22.871Z,0.00
2018-03-20T18:46:22.911Z,0.00
2018-03-20T18:47:22.945Z,0.00
2018-03-20T18:48:22.973Z,0.00
2018-03-20T18:49:23.006Z,0.00
2018-03-20T18:50:23.043Z,0.00
2018-03-20T18:51:23.079Z,0.00
2018-03-20T18:52:23.110Z,0.00
2018-03-20T18:53:23.146Z,0.00
2018-03-20T18:54:23.176Z,0.00
2018-03-20T18:55:23.213Z,0.00
2018-03-20T18:56:23.247Z,0.00
2018-03-20T18:57:23.283Z,0.00
2018-03-20T18:58:23.316Z,0.00
2018-03-20T18:59:23.351Z,0.00
2018-03-20T19:00:23.391Z,0.00
2018-03-20T19:01:23.419Z,0.00
2018-03-20T19:02:23.452Z,0.00
2018-03-20T19:03:23.487Z,0.00
2018-03-20T19:04:23.523Z,0.00
2018-03-20T19:05:23.557Z,0.00
2018-03-20T19:06:23.590Z,0.00
2018-03-20T19:07:23.623Z,0.00
2018-03-20T19:08:23.669Z,0.00
2018-03-20T19:09:23.705Z,0.00
2018-03-20T19:10:23.730Z,0.00
2018-03-20T19:11:23.761Z,0.00
2018-03-20T19:12:23.804Z,0.00
2018-03-20T19:13:23.831Z,0.00
2018-03-20T19:14:23.864Z,0.00
2018-03-20T19:15:23.898Z,0.00
2018-03-20T19:16:23.935Z,0.00
2018-03-20T19:17:23.969Z,0.00
2018-03-20T19:18:24.001Z,0.00
2018-03-20T19:19:24.036Z,0.00
2018-03-20T19:20:24.072Z,0.00
2018-03-20T19:21:24.105Z,0.00
2018-03-20T19:22:24.138Z,0.00
2018-03-20T19:23:24.174Z,0.00
2018-03-20T19:24:24.212Z,0.00
2018-03-20T19:25:24.250Z,0.00
2018-03-20T19:26:24.275Z,0.00
2018-03-20T19:27:24.310Z,0.00
2018-03-20T19:28:24.349Z,0.00
2018-03-20T19:29:24.378Z,0.00
2018-03-20T19:30:24.417Z,0.00
2018-03-20T19:31:24.448Z,0.00
2018-03-20T19:32:24.480Z,0.00
2018-03-20T19:33:24.515Z,0.00
2018-03-20T19:34:24.549Z,0.00
2018-03-20T19:35:24.586Z,0.00
2018-03-20T19:36:24.616Z,0.00
2018-03-20T19:37:24.653Z,0.00
2018-03-20T19:38:24.690Z,0.00
2018-03-20T19:39:24.720Z,0.00
2018-03-20T19:40:24.754Z,0.00
2018-03-20T19:41:24.788Z,0.00
2018-03-20T19:42:24.826Z,0.00
2018-03-20T19:43:24.862Z,0.00
2018-03-20T19:44:24.894Z,0.00
2018-03-20T19:45:24.926Z,0.00
2018-03-20T19:46:24.972Z,0.00
2018-03-20T19:47:25.021Z,0.00
2018-03-20T19:48:25.030Z,0.00
2018-03-20T19:49:25.067Z,0.00
2018-03-20T19:50:25.097Z,0.00
2018-03-20T19:51:25.136Z,0.00
2018-03-20T19:52:25.169Z,0.00
2018-03-20T19:53:25.200Z,0.00
2018-03-20T19:54:25.233Z,0.00
2018-03-20T19:55:25.267Z,0.00
2018-03-20T19:56:25.305Z,0.00
2018-03-20T19:57:25.340Z,0.00
2018-03-20T19:58:25.370Z,0.00
2018-03-20T19:59:25.406Z,0.00
2018-03-20T20:00:25.439Z,0.00
2018-03-20T20:01:25.476Z,0.00
2018-03-20T20:02:25.508Z,0.00
2018-03-20T20:03:25.542Z,0.00
2018-03-20T20:04:25.608Z,0.00
2018-03-20T20:05:25.611Z,0.00
2018-03-20T20:06:25.645Z,0.00
2018-03-20T20:07:25.680Z,0.00
2018-03-20T20:08:25.713Z,0.00
2018-03-20T20:09:25.761Z,0.00
2018-03-20T20:10:25.785Z,0.00
2018-03-20T20:11:25.816Z,0.00
2018-03-20T20:12:25.850Z,0.00
2018-03-20T20:13:25.886Z,0.00
2018-03-20T20:14:25.923Z,0.00
2018-03-20T20:15:25.956Z,0.00
2018-03-20T20:16:25.988Z,0.00
2018-03-20T20:17:26.030Z,0.00
2018-03-20T20:18:26.062Z,0.00
2018-03-20T20:19:26.090Z,0.00
2018-03-20T20:20:26.138Z,0.00
2018-03-20T20:21:26.159Z,0.00
2018-03-20T20:22:26.197Z,0.00
2018-03-20T20:23:26.225Z,0.00
2018-03-20T20:24:26.264Z,0.00
2018-03-20T20:25:26.295Z,0.00
2018-03-20T20:26:26.328Z,0.00
2018-03-20T20:27:26.361Z,0.00
2018-03-20T20:28:26.398Z,0.00
2018-03-20T20:29:26.432Z,0.00
2018-03-20T20:30:26.475Z,0.00
2018-03-20T20:31:26.518Z,0.00
2018-03-20T20:32:26.539Z,0.00
2018-03-20T20:33:26.568Z,0.00
2018-03-20T20:34:26.639Z,0.00
2018-03-20T20:35:26.638Z,0.00
2018-03-20T20:36:26.672Z,0.00
2018-03-20T20:37:26.706Z,0.00
2018-03-20T20:38:26.740Z,0.00
2018-03-20T20:39:26.773Z,0.00
2018-03-20T20:40:26.809Z,0.00
2018-03-20T20:41:26.844Z,0.00
2018-03-20T20:42:26.876Z,0.00
2018-03-20T20:43:26.912Z,0.00
2018-03-20T20:44:26.948Z,0.00
2018-03-20T20:45:26.982Z,0.00
2018-03-20T20:46:27.015Z,0.00
2018-03-20T20:47:27.049Z,0.00
2018-03-20T20:48:27.087Z,0.00
2018-03-20T20:49:27.116Z,0.00
2018-03-20T20:50:27.976Z,0.00
2018-03-20T20:51:27.195Z,0.00
2018-03-20T20:52:27.219Z,0.00
2018-03-20T20:53:27.258Z,0.00
2018-03-20T20:54:27.289Z,0.00
2018-03-20T20:55:27.323Z,0.00
2018-03-20T20:56:27.356Z,0.00
2018-03-20T20:57:27.392Z,0.00
2018-03-20T20:58:27.427Z,0.00
2018-03-20T20:59:27.466Z,0.00
2018-03-20T21:00:27.495Z,0.00
2018-03-20T21:01:27.529Z,0.00
2018-03-20T21:02:27.565Z,0.00
2018-03-20T21:03:27.602Z,0.00
2018-03-20T21:04:27.634Z,0.00
2018-03-20T21:05:27.666Z,0.00
2018-03-20T21:06:27.700Z,0.00
2018-03-20T21:07:27.738Z,0.00
2018-03-20T21:08:27.831Z,0.00
2018-03-20T21:09:27.803Z,0.00
2018-03-20T21:10:27.839Z,0.00
2018-03-20T21:11:27.874Z,0.00
2018-03-20T21:12:27.907Z,0.00
2018-03-20T21:13:27.942Z,0.00
2018-03-20T21:14:27.974Z,0.00
2018-03-20T21:15:28.008Z,0.00
2018-03-20T21:16:28.044Z,0.00
2018-03-20T21:17:28.079Z,0.00
2018-03-20T21:18:28.112Z,0.00
2018-03-20T21:19:28.153Z,0.00
2018-03-20T21:20:28.182Z,0.00
2018-03-20T21:21:28.215Z,0.00
2018-03-20T21:22:28.248Z,0.00
2018-03-20T21:23:28.284Z,0.00
2018-03-20T21:24:28.321Z,0.00
2018-03-20T21:25:28.354Z,0.00
2018-03-20T21:26:28.386Z,0.00
2018-03-20T21:27:28.420Z,0.00
2018-03-20T21:28:28.453Z,0.00
2018-03-20T21:29:28.499Z,0.00
2018-03-20T21:30:28.528Z,0.00
2018-03-20T21:31:28.557Z,0.00
2018-03-20T21:32:28.595Z,0.00
2018-03-20T21:33:28.626Z,0.00
2018-03-20T21:34:28.660Z,0.00
2018-03-20T21:35:28.709Z,0.00
2018-03-20T21:36:28.730Z,0.00
2018-03-20T21:37:28.771Z,0.00
2018-03-20T21:38:28.798Z,0.00
2018-03-20T21:39:28.835Z,0.00
2018-03-20T21:40:28.866Z,0.00
2018-03-20T21:41:28.905Z,0.00
2018-03-20T21:42:28.936Z,0.00
2018-03-20T21:43:28.968Z,0.00
2018-03-20T21:44:29.004Z,0.00
2018-03-20T21:45:29.045Z,0.00
2018-03-20T21:46:29.080Z,0.00
2018-03-20T21:47:29.112Z,0.00
2018-03-20T21:48:29.142Z,0.00
2018-03-20T21:49:29.176Z,0.00
2018-03-20T21:50:29.214Z,0.00
2018-03-20T21:51:29.250Z,0.00
2018-03-20T21:52:29.280Z,0.00
2018-03-20T21:53:29.313Z,0.00
2018-03-20T21:54:29.347Z,0.00
2018-03-20T21:55:29.381Z,0.00
2018-03-20T21:56:29.415Z,0.00
2018-03-20T21:57:29.473Z,0.00
2018-03-20T21:58:29.485Z,0.00
2018-03-20T21:59:29.518Z,0.00
2018-03-20T22:00:29.554Z,0.00
2018-03-20T22:01:29.588Z,0.00
2018-03-20T22:02:29.626Z,0.00
2018-03-20T22:03:29.658Z,0.00
2018-03-20T22:04:29.691Z,0.00
2018-03-20T22:05:29.725Z,0.00
2018-03-20T22:06:29.762Z,0.00
2018-03-20T22:07:29.793Z,0.00
2018-03-20T22:08:29.827Z,0.00
2018-03-20T22:09:29.864Z,0.00
2018-03-20T22:10:29.902Z,0.00
2018-03-20T22:11:29.931Z,0.00
2018-03-20T22:12:29.965Z,0.00
2018-03-20T22:13:30.000Z,0.00
2018-03-20T22:14:30.033Z,0.00
2018-03-20T22:15:30.069Z,0.00
2018-03-20T22:16:30.104Z,0.00
2018-03-20T22:17:30.137Z,0.00
2018-03-20T22:18:30.170Z,0.00
2018-03-20T22:19:30.219Z,0.00
2018-03-20T22:20:30.240Z,0.00
2018-03-20T22:21:30.275Z,0.00
2018-03-20T22:22:30.309Z,0.00
2018-03-20T22:23:30.343Z,0.00
2018-03-20T22:24:30.378Z,0.00
2018-03-20T22:25:30.417Z,0.00
2018-03-20T22:26:30.444Z,0.00
2018-03-20T22:27:30.480Z,0.00
2018-03-20T22:28:30.516Z,0.00
2018-03-20T22:29:30.552Z,0.00
2018-03-20T22:30:30.628Z,0.00
2018-03-20T22:31:30.620Z,0.00
2018-03-20T22:32:30.656Z,0.00
2018-03-20T22:33:30.689Z,0.00
2018-03-20T22:34:30.721Z,0.00
2018-03-20T22:35:30.756Z,0.00
2018-03-20T22:36:30.788Z,0.00
2018-03-20T22:37:30.824Z,0.00
2018-03-20T22:38:30.859Z,0.00
2018-03-20T22:39:30.891Z,0.00
2018-03-20T22:40:30.928Z,0.00
2018-03-20T22:41:30.962Z,0.00
2018-03-20T22:42:30.997Z,0.00
2018-03-20T22:43:31.028Z,0.00
2018-03-20T22:44:31.064Z,0.00
2018-03-20T22:45:31.098Z,0.00
2018-03-20T22:46:31.132Z,0.00
2018-03-20T22:47:31.166Z,0.00
2018-03-20T22:48:31.201Z,0.00
2018-03-20T22:49:31.235Z,0.00
2018-03-20T22:50:31.272Z,0.00
2018-03-20T22:51:31.305Z,0.00
2018-03-20T22:52:31.337Z,0.00
2018-03-20T22:53:31.374Z,0.00
2018-03-20T22:54:31.408Z,0.00
2018-03-20T22:55:31.440Z,0.00
2018-03-20T22:56:31.476Z,0.00
2018-03-20T22:57:31.510Z,0.00
2018-03-20T22:58:31.545Z,0.00
2018-03-20T22:59:31.590Z,0.00
2018-03-20T23:00:31.614Z,0.00
2018-03-20T23:01:31.653Z,0.00
2018-03-20T23:02:31.682Z,0.00
2018-03-20T23:03:31.715Z,0.00
2018-03-20T23:04:31.750Z,0.00
2018-03-20T23:05:31.787Z,0.00
2018-03-20T23:06:31.829Z,0.00
2018-03-20T23:07:31.853Z,0.00
2018-03-20T23:08:31.889Z,0.00
2018-03-20T23:09:31.923Z,0.00
2018-03-20T23:10:31.958Z,0.00
2018-03-20T23:11:31.991Z,0.00
2018-03-20T23:12:32.026Z,0.00
2018-03-20T23:13:32.061Z,0.00
2018-03-20T23:14:32.106Z,0.00
2018-03-20T23:15:32.128Z,0.00
2018-03-20T23:16:32.163Z,0.00
2018-03-20T23:17:32.216Z,0.00
2018-03-20T23:18:32.232Z,0.00
2018-03-20T23:19:32.267Z,0.00
2018-03-20T23:20:32.300Z,0.00
2018-03-20T23:21:32.335Z,0.00
2018-03-20T23:22:32.370Z,0.00
2018-03-20T23:23:32.406Z,0.00
2018-03-20T23:24:32.492Z,0.00
2018-03-20T23:25:32.475Z,0.00
2018-03-20T23:26:32.508Z,0.00
2018-03-20T23:27:32.542Z,0.00
2018-03-20T23:28:32.576Z,0.00
2018-03-20T23:29:32.612Z,0.00
2018-03-20T23:30:32.649Z,0.00
2018-03-20T23:31:32.680Z,0.00
2018-03-20T23:32:32.715Z,0.00
2018-03-20T23:33:32.748Z,0.00
2018-03-20T23:34:32.783Z,0.00